Time;durP1;ratioP1;P1;durP2;ratioP2;P2;SDS_P1;SDS_P2;PMS_P1;PMS_P2;Temp;Humidity;BMP_temperature;BMP_pressure;BME280_temperature;BME280_humidity;BME280_pressure;Samples;Min_cycle;Max_cycle;Signal;HPM_P1;HPM_P2
2022/06/07 00:00:52;;;;;;;10.98;2.13;;;;;;;;;;4913767;29;20044;-66
2022/06/07 00:03:19;;;;;;;11.00;1.67;;;;;;;;;;4915396;29;20127;-66
2022/06/07 00:05:45;;;;;;;5.05;1.40;;;;;;;;;;4915727;29;20040;-66
2022/06/07 00:08:12;;;;;;;7.53;1.80;;;;;;;;;;4915764;29;20032;-66
2022/06/07 00:10:38;;;;;;;9.18;1.80;;;;;;;;;;4915754;29;20059;-66
2022/06/07 00:13:06;;;;;;;13.43;1.65;;;;;;;;;;4915363;29;20036;-66
2022/06/07 00:15:32;;;;;;;6.68;1.60;;;;;;;;;;4914375;29;20039;-66
2022/06/07 00:17:58;;;;;;;5.40;1.48;;;;;;;;;;4915276;29;20088;-66
2022/06/07 00:20:24;;;;;;;6.93;1.52;;;;;;;;;;4913854;29;20040;-66
2022/06/07 00:22:51;;;;;;;7.25;1.50;;;;;;;;;;4915374;29;20028;-66
2022/06/07 00:25:17;;;;;;;4.68;1.73;;;;;;;;;;4915435;29;20105;-66
2022/06/07 00:27:44;;;;;;;10.00;1.60;;;;;;;;;;4915657;29;20034;-66
2022/06/07 00:30:11;;;;;;;11.50;1.90;;;;;;;;;;4915098;29;20076;-66
2022/06/07 00:32:38;;;;;;;8.38;1.38;;;;;;;;;;4914247;29;20040;-66
2022/06/07 00:35:04;;;;;;;6.85;1.35;;;;;;;;;;4913818;29;20096;-66
2022/06/07 00:37:31;;;;;;;7.35;1.70;;;;;;;;;;4915573;29;20032;-67
2022/06/07 00:39:57;;;;;;;5.10;1.38;;;;;;;;;;4915440;29;20090;-66
2022/06/07 00:42:23;;;;;;;9.05;1.52;;;;;;;;;;4914120;29;20043;-66
2022/06/07 00:44:49;;;;;;;6.82;1.38;;;;;;;;;;4914965;29;20032;-66
2022/06/07 00:47:17;;;;;;;5.72;1.30;;;;;;;;;;4912569;29;20063;-66
2022/06/07 00:49:43;;;;;;;7.72;1.73;;;;;;;;;;4915552;29;20386;-67
2022/06/07 00:52:10;;;;;;;7.07;1.40;;;;;;;;;;4913871;29;20036;-66
2022/06/07 00:54:36;;;;;;;5.18;1.40;;;;;;;;;;4914017;29;20087;-66
2022/06/07 00:57:22;;;;;;;8.18;1.40;;;;;;;;;;4900677;29;20059;-66
2022/06/07 00:59:50;;;;;;;7.55;1.65;;;;;;;;;;4913714;29;20036;-66
2022/06/07 01:02:17;;;;;;;4.47;1.42;;;;;;;;;;4913825;29;20048;-67
2022/06/07 01:04:43;;;;;;;6.32;1.42;;;;;;;;;;4915016;29;20039;-67
2022/06/07 01:12:47;;;;;;;9.68;1.85;;;;;;;;;;4917403;29;20043;-66
2022/06/07 01:15:15;;;;;;;4.97;1.40;;;;;;;;;;4913958;29;20118;-66
2022/06/07 01:17:42;;;;;;;4.68;1.52;;;;;;;;;;4917207;29;20032;-66
2022/06/07 01:20:09;;;;;;;6.95;1.48;;;;;;;;;;4917143;29;20042;-67
2022/06/07 01:22:36;;;;;;;6.35;1.40;;;;;;;;;;4917099;29;20512;-67
2022/06/07 01:25:02;;;;;;;7.28;1.40;;;;;;;;;;4918113;29;20031;-67
2022/06/07 01:27:29;;;;;;;6.80;1.48;;;;;;;;;;4916643;29;20421;-67
2022/06/07 01:29:55;;;;;;;6.55;1.30;;;;;;;;;;4917046;29;20028;-67
2022/06/07 01:32:22;;;;;;;8.65;1.58;;;;;;;;;;4932666;29;20102;-67
2022/06/07 01:34:48;;;;;;;12.63;1.60;;;;;;;;;;4917099;29;20036;-67
2022/06/07 01:37:16;;;;;;;6.13;1.33;;;;;;;;;;4917723;29;20045;-66
2022/06/07 01:42:27;;;;;;;6.57;1.35;;;;;;;;;;4915683;29;20044;-66
2022/06/07 01:44:53;;;;;;;4.60;1.30;;;;;;;;;;4917829;29;20051;-67
2022/06/07 01:47:23;;;;;;;3.80;1.15;;;;;;;;;;4915836;29;20028;-66
2022/06/07 01:49:54;;;;;;;10.25;1.55;;;;;;;;;;4916496;29;20485;-66
2022/06/07 01:52:21;;;;;;;10.27;1.45;;;;;;;;;;4915482;29;20042;-66
2022/06/07 01:54:51;;;;;;;5.55;1.48;;;;;;;;;;4916250;29;20083;-66
2022/06/07 01:57:19;;;;;;;4.68;1.30;;;;;;;;;;4915268;29;20036;-66
2022/06/07 01:59:46;;;;;;;7.00;1.42;;;;;;;;;;4916406;29;20032;-66
2022/06/07 02:02:18;;;;;;;8.43;1.92;;;;;;;;;;4926038;29;20044;-66
2022/06/07 02:04:44;;;;;;;5.38;1.25;;;;;;;;;;4908238;29;20024;-66
2022/06/07 02:07:12;;;;;;;6.97;1.38;;;;;;;;;;4916700;29;20032;-66
2022/06/07 02:09:38;;;;;;;6.03;1.17;;;;;;;;;;4932459;29;20473;-66
2022/06/07 02:12:06;;;;;;;7.32;2.00;;;;;;;;;;4915281;29;20067;-66
2022/06/07 02:14:33;;;;;;;10.32;1.42;;;;;;;;;;4916874;29;20040;-66
2022/06/07 02:16:59;;;;;;;8.77;1.10;;;;;;;;;;4915304;29;20048;-66
2022/06/07 02:19:33;;;;;;;3.33;0.95;;;;;;;;;;4916200;29;20058;-66
2022/06/07 02:21:59;;;;;;;4.60;1.23;;;;;;;;;;4915982;29;20036;-66
2022/06/07 02:24:26;;;;;;;4.40;1.10;;;;;;;;;;4931388;29;20032;-66
2022/06/07 02:26:57;;;;;;;4.97;0.90;;;;;;;;;;4917085;29;20028;-66
2022/06/07 02:29:25;;;;;;;5.57;1.10;;;;;;;;;;4917137;29;20052;-66
2022/06/07 02:32:03;;;;;;;2.28;1.05;;;;;;;;;;4915874;29;20076;-66
2022/06/07 02:34:30;;;;;;;5.32;1.50;;;;;;;;;;4916772;29;20036;-66
2022/06/07 02:36:59;;;;;;;4.43;1.13;;;;;;;;;;4917061;29;20119;-66
2022/06/07 02:39:25;;;;;;;3.35;0.98;;;;;;;;;;4909112;29;20425;-66
2022/06/07 02:41:51;;;;;;;5.47;0.98;;;;;;;;;;4911271;29;20036;-66
2022/06/07 02:44:17;;;;;;;4.93;1.13;;;;;;;;;;4916570;29;20091;-66
2022/06/07 02:46:44;;;;;;;3.65;0.90;;;;;;;;;;4915673;29;20048;-66
2022/06/07 02:49:10;;;;;;;3.95;1.17;;;;;;;;;;4931382;29;20516;-66
2022/06/07 02:51:37;;;;;;;6.35;1.48;;;;;;;;;;4915536;29;20056;-66
2022/06/07 02:54:03;;;;;;;10.45;1.30;;;;;;;;;;4915352;29;20032;-66
2022/06/07 02:56:29;;;;;;;5.30;1.15;;;;;;;;;;4915989;29;20032;-66
2022/06/07 02:58:56;;;;;;;7.95;2.00;;;;;;;;;;4915473;29;20016;-66
2022/06/07 03:01:26;;;;;;;7.20;1.55;;;;;;;;;;4915167;29;20047;-66
2022/06/07 03:03:52;;;;;;;5.05;1.52;;;;;;;;;;4916127;29;20024;-66
2022/06/07 03:06:19;;;;;;;3.72;1.55;;;;;;;;;;4916287;29;20056;-66
2022/06/07 03:08:49;;;;;;;13.32;1.60;;;;;;;;;;4914981;29;20705;-66
2022/06/07 03:11:15;;;;;;;7.57;1.45;;;;;;;;;;4915099;29;20393;-66
2022/06/07 03:13:42;;;;;;;11.32;1.40;;;;;;;;;;4930748;29;20028;-66
2022/06/07 03:16:15;;;;;;;12.57;3.13;;;;;;;;;;4914970;29;20107;-67
2022/06/07 03:18:42;;;;;;;7.70;2.17;;;;;;;;;;4917113;29;20059;-66
2022/06/07 03:21:08;;;;;;;9.02;2.08;;;;;;;;;;4914906;29;20024;-66
2022/06/07 03:23:36;;;;;;;7.35;1.95;;;;;;;;;;4914565;29;20032;-66
2022/06/07 03:26:10;;;;;;;6.55;1.60;;;;;;;;;;4915156;29;20481;-66
2022/06/07 03:28:43;;;;;;;15.23;2.22;;;;;;;;;;4914458;29;20020;-67
2022/06/07 03:31:14;;;;;;;5.55;1.70;;;;;;;;;;4914968;29;20021;-66
2022/06/07 03:33:43;;;;;;;5.22;2.08;;;;;;;;;;4930035;29;20036;-66
2022/06/07 03:36:12;;;;;;;11.65;2.15;;;;;;;;;;4916208;29;20408;-67
2022/06/07 03:38:40;;;;;;;8.80;2.15;;;;;;;;;;4914296;29;20444;-66
2022/06/07 03:41:06;;;;;;;9.15;1.90;;;;;;;;;;4914727;29;20496;-66
2022/06/07 03:43:33;;;;;;;7.20;2.35;;;;;;;;;;4930279;29;20111;-66
2022/06/07 03:46:12;;;;;;;9.45;2.00;;;;;;;;;;4914779;29;20032;-66
2022/06/07 03:48:39;;;;;;;11.70;2.85;;;;;;;;;;4930161;29;20024;-66
2022/06/07 03:51:06;;;;;;;9.70;2.10;;;;;;;;;;4914787;29;20024;-66
2022/06/07 03:53:35;;;;;;;7.82;2.00;;;;;;;;;;4914213;29;20032;-66
2022/06/07 03:56:01;;;;;;;8.43;2.00;;;;;;;;;;4930412;29;20047;-66
2022/06/07 03:58:34;;;;;;;7.90;1.75;;;;;;;;;;4912038;29;20087;-66
2022/06/07 04:01:02;;;;;;;10.43;2.00;;;;;;;;;;4913993;29;20044;-66
2022/06/07 04:03:29;;;;;;;9.35;2.28;;;;;;;;;;4931917;29;20385;-66
2022/06/07 04:05:57;;;;;;;6.47;1.85;;;;;;;;;;4914634;29;20052;-66
2022/06/07 04:08:27;;;;;;;10.05;2.22;;;;;;;;;;4913657;29;20109;-66
2022/06/07 04:10:57;;;;;;;8.60;2.13;;;;;;;;;;4912066;29;20503;-66
2022/06/07 04:13:32;;;;;;;12.10;2.42;;;;;;;;;;4912705;29;20052;-66
2022/06/07 04:16:09;;;;;;;7.45;2.55;;;;;;;;;;4911698;29;20107;-67
2022/06/07 04:18:41;;;;;;;10.70;2.60;;;;;;;;;;4923761;29;20515;-67
2022/06/07 04:21:07;;;;;;;8.32;2.00;;;;;;;;;;4915565;29;20520;-66
2022/06/07 04:23:34;;;;;;;10.27;2.45;;;;;;;;;;4911495;29;20381;-67
2022/06/07 04:26:06;;;;;;;8.60;1.92;;;;;;;;;;4909849;29;20028;-65
2022/06/07 04:28:34;;;;;;;10.18;2.58;;;;;;;;;;4925965;29;20032;-65
2022/06/07 04:31:00;;;;;;;6.68;1.85;;;;;;;;;;4913571;29;20021;-65
2022/06/07 04:33:27;;;;;;;13.00;2.22;;;;;;;;;;4913008;29;20071;-65
2022/06/07 04:35:56;;;;;;;9.73;2.53;;;;;;;;;;4912203;29;20032;-65
2022/06/07 04:38:25;;;;;;;12.73;2.90;;;;;;;;;;4912333;29;20071;-65
2022/06/07 04:40:51;;;;;;;15.02;2.38;;;;;;;;;;4915961;29;20496;-65
2022/06/07 04:43:17;;;;;;;11.45;2.65;;;;;;;;;;4915248;29;20051;-74
2022/06/07 04:45:44;;;;;;;10.10;2.60;;;;;;;;;;4915869;29;20060;-66
2022/06/07 04:48:12;;;;;;;10.80;2.65;;;;;;;;;;4916949;29;20433;-67
2022/06/07 04:50:48;;;;;;;8.45;2.33;;;;;;;;;;4912483;29;20068;-67
2022/06/07 04:53:18;;;;;;;14.48;2.45;;;;;;;;;;4912809;29;20156;-68
2022/06/07 04:55:44;;;;;;;8.02;2.22;;;;;;;;;;4914453;29;20133;-66
2022/06/07 04:58:10;;;;;;;11.98;2.30;;;;;;;;;;4931285;29;20090;-66
2022/06/07 05:00:38;;;;;;;10.73;2.42;;;;;;;;;;4915445;29;20570;-66
2022/06/07 05:03:05;;;;;;;10.30;2.50;;;;;;;;;;4916810;29;20085;-66
2022/06/07 05:05:35;;;;;;;12.98;2.17;;;;;;;;;;4922786;29;20028;-66
2022/06/07 05:08:06;;;;;;;8.25;2.47;;;;;;;;;;4924358;29;20021;-66
2022/06/07 05:10:33;;;;;;;9.60;3.35;;;;;;;;;;4918901;29;20035;-66
2022/06/07 05:13:03;;;;;;;12.00;2.22;;;;;;;;;;4913798;29;20048;-66
2022/06/07 05:15:33;;;;;;;9.52;2.00;;;;;;;;;;4914780;29;20036;-66
2022/06/07 05:18:07;;;;;;;;;;;;;;;;;;4915835;29;20035;-66
2022/06/07 05:20:37;;;;;;;14.73;3.15;;;;;;;;;;4915807;29;19981;-66
2022/06/07 05:23:08;;;;;;;9.23;1.95;;;;;;;;;;4922601;29;20504;-66
2022/06/07 05:25:38;;;;;;;11.10;3.03;;;;;;;;;;4909779;29;20060;-66
2022/06/07 05:28:05;;;;;;;10.80;2.35;;;;;;;;;;4904827;29;20107;-66
2022/06/07 05:30:34;;;;;;;10.38;2.28;;;;;;;;;;4931388;29;20167;-66
2022/06/07 05:33:09;;;;;;;9.27;2.17;;;;;;;;;;4910088;29;20480;-66
2022/06/07 05:35:47;;;;;;;5.82;1.60;;;;;;;;;;4908513;29;20107;-66
2022/06/07 05:38:16;;;;;;;8.65;2.10;;;;;;;;;;4914087;29;20496;-62
2022/06/07 05:40:48;;;;;;;8.45;1.83;;;;;;;;;;4913536;29;20040;-61
2022/06/07 05:43:17;;;;;;;9.15;2.03;;;;;;;;;;4915437;29;20043;-61
2022/06/07 05:45:49;;;;;;;6.72;1.55;;;;;;;;;;4926471;29;20035;-61
2022/06/07 05:48:20;;;;;;;7.68;1.70;;;;;;;;;;4916291;29;20028;-61
2022/06/07 05:50:51;;;;;;;9.63;1.95;;;;;;;;;;4916828;29;20459;-61
2022/06/07 05:53:20;;;;;;;4.75;1.50;;;;;;;;;;4916916;29;20036;-61
2022/06/07 05:55:47;;;;;;;6.32;1.60;;;;;;;;;;4916354;29;20032;-61
2022/06/07 05:58:14;;;;;;;12.52;2.40;;;;;;;;;;4916771;29;20032;-61
2022/06/07 06:00:41;;;;;;;8.13;2.00;;;;;;;;;;4909229;29;20142;-61
2022/06/07 06:03:10;;;;;;;5.55;1.40;;;;;;;;;;4929624;29;20043;-61
2022/06/07 06:05:46;;;;;;;3.67;1.35;;;;;;;;;;4915826;29;20032;-61
2022/06/07 06:11:07;;;;;;;11.30;1.50;;;;;;;;;;4913802;29;20036;-61
2022/06/07 06:13:35;;;;;;;6.85;1.58;;;;;;;;;;4915494;29;20527;-61
2022/06/07 06:16:06;;;;;;;10.63;1.65;;;;;;;;;;4913894;29;20445;-60
2022/06/07 06:18:35;;;;;;;9.60;1.80;;;;;;;;;;4917696;29;20036;-60
2022/06/07 06:21:02;;;;;;;6.38;1.75;;;;;;;;;;4916629;29;20084;-60
2022/06/07 06:23:28;;;;;;;12.70;1.90;;;;;;;;;;4916415;29;20043;-60
2022/06/07 06:25:55;;;;;;;6.40;1.80;;;;;;;;;;4915950;29;20527;-60
2022/06/07 06:28:21;;;;;;;5.70;2.08;;;;;;;;;;4916144;29;20084;-61
2022/06/07 06:30:48;;;;;;;7.47;1.50;;;;;;;;;;4916055;29;20032;-61
2022/06/07 06:33:25;;;;;;;11.25;2.05;;;;;;;;;;4915787;29;20044;-61
2022/06/07 06:35:54;;;;;;;7.10;1.65;;;;;;;;;;4915600;29;20035;-61
2022/06/07 06:38:24;;;;;;;5.93;1.42;;;;;;;;;;4916039;29;20382;-61
2022/06/07 06:40:52;;;;;;;11.48;2.25;;;;;;;;;;4915706;29;20123;-61
2022/06/07 06:43:20;;;;;;;6.63;1.70;;;;;;;;;;4912256;29;20052;-60
2022/06/07 06:46:05;;;;;;;16.00;1.90;;;;;;;;;;4896969;29;20064;-61
2022/06/07 06:48:33;;;;;;;5.18;1.65;;;;;;;;;;4907749;29;20414;-61
2022/06/07 06:51:00;;;;;;;7.30;1.92;;;;;;;;;;4915679;29;20459;-61
2022/06/07 06:53:27;;;;;;;5.55;2.30;;;;;;;;;;4915864;29;20040;-61
2022/06/07 06:55:56;;;;;;;6.78;2.05;;;;;;;;;;4914688;29;20378;-61
2022/06/07 06:58:27;;;;;;;7.93;2.38;;;;;;;;;;4929134;29;20040;-61
2022/06/07 07:01:21;;;;;;;5.28;1.60;;;;;;;;;;4909362;29;20048;-61
2022/06/07 07:03:50;;;;;;;7.28;1.45;;;;;;;;;;4907784;29;20040;-61
2022/06/07 07:06:21;;;;;;;6.78;2.22;;;;;;;;;;4944584;29;20068;-61
2022/06/07 07:08:48;;;;;;;5.07;1.60;;;;;;;;;;4947012;28;20028;-61
2022/06/07 07:11:26;;;;;;;5.47;1.52;;;;;;;;;;4915795;29;20131;-61
2022/06/07 07:13:55;;;;;;;8.48;1.50;;;;;;;;;;4915444;29;20425;-61
2022/06/07 07:16:24;;;;;;;7.40;1.67;;;;;;;;;;4914423;29;20123;-61
2022/06/07 07:18:51;;;;;;;4.15;1.60;;;;;;;;;;4932546;29;20075;-60
2022/06/07 07:21:20;;;;;;;6.05;1.83;;;;;;;;;;4945239;29;20031;-60
2022/06/07 07:23:47;;;;;;;7.10;1.67;;;;;;;;;;4932303;29;20514;-60
2022/06/07 07:26:24;;;;;;;7.57;1.40;;;;;;;;;;4917967;29;20033;-60
2022/06/07 07:28:52;;;;;;;5.13;1.30;;;;;;;;;;4915746;29;20036;-60
2022/06/07 07:31:31;;;;;;;8.60;2.00;;;;;;;;;;4913346;29;20024;-60
2022/06/07 07:34:00;;;;;;;6.32;1.33;;;;;;;;;;4908304;29;20039;-60
2022/06/07 07:36:27;;;;;;;7.38;1.58;;;;;;;;;;4914231;29;20436;-60
2022/06/07 07:38:54;;;;;;;10.45;1.42;;;;;;;;;;4926620;29;20521;-60
2022/06/07 07:41:23;;;;;;;3.40;1.38;;;;;;;;;;4914251;29;20047;-60
2022/06/07 07:43:51;;;;;;;4.30;1.00;;;;;;;;;;4911628;29;20492;-61
2022/06/07 07:46:21;;;;;;;4.05;0.95;;;;;;;;;;4912715;29;20024;-61
2022/06/07 07:48:48;;;;;;;8.00;1.30;;;;;;;;;;4914289;29;20052;-61
2022/06/07 07:51:19;;;;;;;4.90;0.90;;;;;;;;;;4928286;29;20020;-60
2022/06/07 07:53:49;;;;;;;5.22;0.90;;;;;;;;;;4913470;29;20044;-61
2022/06/07 07:56:17;;;;;;;4.15;1.23;;;;;;;;;;4928793;29;20107;-61
2022/06/07 07:58:45;;;;;;;2.75;0.98;;;;;;;;;;4902480;29;20103;-61
2022/06/07 08:01:14;;;;;;;4.38;1.08;;;;;;;;;;4909662;29;20048;-60
2022/06/07 08:03:42;;;;;;;8.98;1.25;;;;;;;;;;4905663;29;20043;-60
2022/06/07 08:06:15;;;;;;;3.70;1.05;;;;;;;;;;4913748;29;20036;-60
2022/06/07 08:08:41;;;;;;;2.67;1.00;;;;;;;;;;4904426;29;20029;-60
2022/06/07 08:11:07;;;;;;;5.13;0.95;;;;;;;;;;4906332;29;20021;-60
2022/06/07 08:13:33;;;;;;;4.47;0.90;;;;;;;;;;4910613;29;20119;-61
2022/06/07 08:16:00;;;;;;;4.63;0.90;;;;;;;;;;4917591;29;20032;-60
2022/06/07 08:18:27;;;;;;;4.15;0.82;;;;;;;;;;4924464;29;20449;-61
2022/06/07 08:21:00;;;;;;;6.30;1.38;;;;;;;;;;4919234;29;20479;-61
2022/06/07 08:23:28;;;;;;;5.80;1.00;;;;;;;;;;4919000;29;20483;-61
2022/06/07 08:25:57;;;;;;;5.70;0.93;;;;;;;;;;4916356;29;20036;-61
2022/06/07 08:28:24;;;;;;;4.68;1.08;;;;;;;;;;4907874;29;20036;-61
2022/06/07 08:30:50;;;;;;;2.60;0.50;;;;;;;;;;4917569;29;20543;-61
2022/06/07 08:38:46;;;;;;;5.07;0.80;;;;;;;;;;4918187;29;20071;-61
2022/06/07 08:41:28;;;;;;;3.70;0.70;;;;;;;;;;4918545;29;20082;-61
2022/06/07 08:43:55;;;;;;;8.40;1.05;;;;;;;;;;4918552;29;20377;-61
2022/06/07 08:46:27;;;;;;;2.78;0.73;;;;;;;;;;4918704;29;20443;-61
2022/06/07 08:48:53;;;;;;;2.47;0.80;;;;;;;;;;4915955;29;20047;-61
2022/06/07 08:51:29;;;;;;;4.68;0.60;;;;;;;;;;4918445;29;20076;-61
2022/06/07 08:53:57;;;;;;;1.83;0.60;;;;;;;;;;4915055;29;20065;-60
2022/06/07 08:56:26;;;;;;;2.00;0.47;;;;;;;;;;4918174;29;20040;-61
2022/06/07 08:58:52;;;;;;;4.47;0.82;;;;;;;;;;4918293;29;20501;-61
2022/06/07 09:01:30;;;;;;;1.50;0.50;;;;;;;;;;4918243;29;20127;-61
2022/06/07 09:03:59;;;;;;;2.38;0.70;;;;;;;;;;4918411;29;20055;-61
2022/06/07 09:06:29;;;;;;;1.02;0.30;;;;;;;;;;4918394;29;20024;-61
2022/06/07 09:08:57;;;;;;;5.25;0.70;;;;;;;;;;4917848;29;20087;-61
2022/06/07 09:14:18;;;;;;;1.83;0.43;;;;;;;;;;4918511;29;20024;-61
2022/06/07 09:16:45;;;;;;;2.47;0.65;;;;;;;;;;4915769;29;20760;-61
2022/06/07 09:19:22;;;;;;;2.90;0.57;;;;;;;;;;4919051;29;20032;-61
2022/06/07 09:21:49;;;;;;;1.75;0.70;;;;;;;;;;4904008;29;20036;-61
2022/06/07 09:24:34;;;;;;;4.68;0.73;;;;;;;;;;4918393;29;20075;-61
2022/06/07 09:27:05;;;;;;;2.63;0.70;;;;;;;;;;4917142;29;20128;-61
2022/06/07 09:29:35;;;;;;;2.47;0.50;;;;;;;;;;4917148;29;20035;-61
2022/06/07 09:32:01;;;;;;;2.20;0.40;;;;;;;;;;4918116;29;20375;-61
2022/06/07 09:34:29;;;;;;;0.93;0.73;;;;;;;;;;4917097;29;20370;-61
2022/06/07 09:37:00;;;;;;;2.55;0.50;;;;;;;;;;4915514;29;20036;-61
2022/06/07 09:39:29;;;;;;;2.78;0.50;;;;;;;;;;4917439;29;20042;-61
2022/06/07 09:42:15;;;;;;;1.75;0.60;;;;;;;;;;4917458;29;20032;-60
2022/06/07 09:44:54;;;;;;;2.53;0.32;;;;;;;;;;4914080;29;20051;-60
2022/06/07 09:47:21;;;;;;;1.10;0.40;;;;;;;;;;4917311;29;20024;-61
2022/06/07 09:49:48;;;;;;;1.50;0.43;;;;;;;;;;4917796;29;20059;-60
2022/06/07 09:52:16;;;;;;;2.50;0.30;;;;;;;;;;4916241;29;20068;-60
2022/06/07 09:54:44;;;;;;;0.80;0.40;;;;;;;;;;4917356;29;20028;-60
2022/06/07 09:57:26;;;;;;;0.77;0.40;;;;;;;;;;4916963;29;20066;-60
2022/06/07 09:59:55;;;;;;;4.35;0.60;;;;;;;;;;4917420;29;20028;-60
2022/06/07 10:02:40;;;;;;;2.03;0.88;;;;;;;;;;4917045;29;20112;-60
2022/06/07 10:05:12;;;;;;;1.55;0.40;;;;;;;;;;4916779;29;20433;-61
2022/06/07 10:07:38;;;;;;;1.93;0.40;;;;;;;;;;4917121;29;20143;-61
2022/06/07 10:10:04;;;;;;;3.45;0.40;;;;;;;;;;4915563;29;20288;-60
2022/06/07 10:12:53;;;;;;;0.70;0.20;;;;;;;;;;4915672;29;20752;-61
2022/06/07 10:15:27;;;;;;;1.45;0.35;;;;;;;;;;4909511;29;20504;-61
2022/06/07 10:18:07;;;;;;;6.78;1.73;;;;;;;;;;4923724;29;20050;-60
2022/06/07 10:20:40;;;;;;;3.05;0.47;;;;;;;;;;4917687;29;20040;-60
2022/06/07 10:23:06;;;;;;;;;;;;;;;;;;4917588;29;20032;-60
2022/06/07 10:25:50;;;;;;;1.60;0.70;;;;;;;;;;4916674;29;19907;-60
2022/06/07 10:28:28;;;;;;;1.52;0.52;;;;;;;;;;4909371;29;20392;-61
2022/06/07 10:31:00;;;;;;;2.35;0.40;;;;;;;;;;4911496;29;20376;-61
2022/06/07 10:33:26;;;;;;;4.80;0.53;;;;;;;;;;4917722;29;20131;-60
2022/06/07 10:35:58;;;;;;;4.05;0.60;;;;;;;;;;4916226;29;20284;-60
2022/06/07 10:38:43;;;;;;;1.63;0.90;;;;;;;;;;4916402;29;20103;-61
2022/06/07 10:41:19;;;;;;;2.67;0.80;;;;;;;;;;4917330;29;20040;-61
2022/06/07 10:43:50;;;;;;;1.17;0.60;;;;;;;;;;4917570;29;20119;-61
2022/06/07 10:46:17;;;;;;;1.63;0.40;;;;;;;;;;4917188;29;20038;-61
2022/06/07 10:48:50;;;;;;;2.50;0.55;;;;;;;;;;4917317;29;20123;-60
2022/06/07 10:54:03;;;;;;;1.90;0.20;;;;;;;;;;4898282;29;20014;-61
2022/06/07 10:56:33;;;;;;;1.33;0.50;;;;;;;;;;4898596;29;20048;-60
2022/06/07 10:59:16;;;;;;;1.33;0.35;;;;;;;;;;5089737;27;20381;-60
2022/06/07 11:02:02;;;;;;;1.73;0.32;;;;;;;;;;5089639;28;20039;-60
2022/06/07 11:10:13;;;;;;;1.25;0.30;;;;;;;;;;5090333;28;20044;-60
2022/06/07 11:12:53;;;;;;;2.70;1.15;;;;;;;;;;5089896;28;20028;-60
2022/06/07 11:15:25;;;;;;;0.75;0.40;;;;;;;;;;5090250;28;20032;-60
2022/06/07 11:18:01;;;;;;;4.93;0.40;;;;;;;;;;5083560;28;20036;-60
2022/06/07 11:20:30;;;;;;;2.28;0.63;;;;;;;;;;5069731;28;20029;-60
2022/06/07 11:23:03;;;;;;;2.05;0.40;;;;;;;;;;5082472;28;20028;-60
2022/06/07 11:25:29;;;;;;;2.53;0.30;;;;;;;;;;5089178;28;20111;-60
2022/06/07 11:27:59;;;;;;;1.00;0.50;;;;;;;;;;5089417;28;20089;-60
2022/06/07 11:30:28;;;;;;;5.97;0.47;;;;;;;;;;5089406;28;20028;-60
2022/06/07 11:32:55;;;;;;;2.20;0.63;;;;;;;;;;5089545;28;20094;-68
2022/06/07 11:35:40;;;;;;;3.50;0.40;;;;;;;;;;5070159;28;20039;-60
2022/06/07 11:38:18;;;;;;;1.67;0.52;;;;;;;;;;5072034;28;20115;-60
2022/06/07 11:40:45;;;;;;;1.02;0.28;;;;;;;;;;5084389;28;20825;-59
2022/06/07 11:43:30;;;;;;;3.55;0.50;;;;;;;;;;5076874;28;20109;-59
2022/06/07 11:45:56;;;;;;;4.43;0.40;;;;;;;;;;5069236;28;20031;-59
2022/06/07 11:48:23;;;;;;;1.13;0.40;;;;;;;;;;5069073;28;20489;-59
2022/06/07 11:50:56;;;;;;;1.48;0.30;;;;;;;;;;5068287;28;20044;-59
2022/06/07 11:53:33;;;;;;;0.82;0.30;;;;;;;;;;5068439;28;20041;-59
2022/06/07 11:56:19;;;;;;;2.22;0.30;;;;;;;;;;5068062;28;20029;-59
2022/06/07 11:58:53;;;;;;;0.40;0.30;;;;;;;;;;5067823;28;20071;-59
2022/06/07 12:01:23;;;;;;;1.42;0.40;;;;;;;;;;5068350;28;20025;-59
2022/06/07 12:04:06;;;;;;;2.72;0.75;;;;;;;;;;5068093;28;20032;-59
2022/06/07 12:06:32;;;;;;;;;;;;;;;;;;5068270;28;20075;-59
2022/06/07 12:09:01;;;;;;;3.50;0.40;;;;;;;;;;5062978;28;19911;-59
2022/06/07 12:11:29;;;;;;;0.82;0.40;;;;;;;;;;5054885;28;20028;-59
2022/06/07 12:13:58;;;;;;;0.70;0.43;;;;;;;;;;5054751;28;20055;-59
2022/06/07 12:16:42;;;;;;;1.45;1.17;;;;;;;;;;5055122;28;20032;-59
2022/06/07 12:19:21;;;;;;;2.92;0.40;;;;;;;;;;5059685;28;20397;-59
2022/06/07 12:21:56;;;;;;;2.42;0.38;;;;;;;;;;5074375;28;20040;-59
2022/06/07 12:24:23;;;;;;;0.95;0.55;;;;;;;;;;5074954;28;20028;-60
2022/06/07 12:26:50;;;;;;;1.40;0.45;;;;;;;;;;5074525;28;20016;-60
2022/06/07 12:29:21;;;;;;;1.30;0.57;;;;;;;;;;5074637;28;20025;-60
2022/06/07 12:31:47;;;;;;;2.00;0.70;;;;;;;;;;5074356;28;20404;-60
2022/06/07 12:34:16;;;;;;;2.08;0.57;;;;;;;;;;5074573;28;20017;-60
2022/06/07 12:36:44;;;;;;;2.55;0.60;;;;;;;;;;5074255;28;20025;-59
2022/06/07 12:39:13;;;;;;;2.28;0.60;;;;;;;;;;5074710;28;20475;-59
2022/06/07 12:41:45;;;;;;;2.28;0.60;;;;;;;;;;5074536;28;20041;-60
2022/06/07 12:44:42;;;;;;;3.08;0.90;;;;;;;;;;5074414;28;20033;-59
2022/06/07 12:47:21;;;;;;;6.00;0.70;;;;;;;;;;5065679;28;20099;-59
2022/06/07 12:49:48;;;;;;;3.17;0.77;;;;;;;;;;5073856;28;20082;-59
2022/06/07 12:52:16;;;;;;;3.70;0.80;;;;;;;;;;5074281;28;20112;-59
2022/06/07 12:54:47;;;;;;;3.95;0.90;;;;;;;;;;5073997;28;20487;-59
2022/06/07 12:57:28;;;;;;;4.30;1.10;;;;;;;;;;5073823;28;20048;-59
2022/06/07 13:00:00;;;;;;;3.60;0.90;;;;;;;;;;5073705;28;20024;-60
2022/06/07 13:02:32;;;;;;;1.48;0.70;;;;;;;;;;5074377;28;20476;-59
2022/06/07 13:05:01;;;;;;;2.15;0.85;;;;;;;;;;5073554;28;20077;-59
2022/06/07 13:07:31;;;;;;;4.45;1.10;;;;;;;;;;5073942;28;20029;-59
2022/06/07 13:09:59;;;;;;;2.83;1.23;;;;;;;;;;5073612;28;20120;-60
2022/06/07 13:12:28;;;;;;;4.93;1.10;;;;;;;;;;5073855;28;20033;-60
2022/06/07 13:14:55;;;;;;;5.95;1.20;;;;;;;;;;5073766;28;20033;-60
2022/06/07 13:17:47;;;;;;;5.35;1.20;;;;;;;;;;5073862;28;20048;-60
2022/06/07 13:20:24;;;;;;;8.48;1.20;;;;;;;;;;5016893;28;20084;-60
2022/06/07 13:22:52;;;;;;;6.38;1.08;;;;;;;;;;5011565;28;20033;-59
2022/06/07 13:25:20;;;;;;;4.88;1.65;;;;;;;;;;5011928;28;20088;-60
2022/06/07 13:28:09;;;;;;;5.65;1.00;;;;;;;;;;5011713;28;20037;-60
2022/06/07 13:30:45;;;;;;;3.10;1.00;;;;;;;;;;5001747;28;20042;-60
2022/06/07 13:33:11;;;;;;;13.82;1.30;;;;;;;;;;5011299;28;20056;-60
2022/06/07 13:35:41;;;;;;;5.70;1.13;;;;;;;;;;5011765;28;20029;-60
2022/06/07 13:38:37;;;;;;;4.88;1.02;;;;;;;;;;5011040;28;20096;-60
2022/06/07 13:41:12;;;;;;;5.28;1.20;;;;;;;;;;4933803;29;20046;-60
2022/06/07 13:43:55;;;;;;;8.40;2.10;;;;;;;;;;4934023;29;20083;-59
2022/06/07 13:46:22;;;;;;;10.25;1.27;;;;;;;;;;4933902;29;20044;-60
2022/06/07 13:54:25;;;;;;;12.40;1.92;;;;;;;;;;4950935;28;20043;-60
2022/06/07 13:56:52;;;;;;;8.00;1.98;;;;;;;;;;4978682;28;20405;-60
2022/06/07 13:59:18;;;;;;;9.40;2.03;;;;;;;;;;5011417;28;20042;-60
2022/06/07 14:01:47;;;;;;;6.22;1.42;;;;;;;;;;5011139;28;20482;-59
2022/06/07 14:04:32;;;;;;;7.25;1.60;;;;;;;;;;5011555;28;20117;-59
2022/06/07 14:06:59;;;;;;;9.75;1.90;;;;;;;;;;4991934;28;20070;-60
2022/06/07 14:09:29;;;;;;;12.07;1.85;;;;;;;;;;4993010;28;20046;-59
2022/06/07 14:11:57;;;;;;;9.63;1.80;;;;;;;;;;5008708;28;20120;-59
2022/06/07 14:14:23;;;;;;;6.60;1.50;;;;;;;;;;5010951;28;20502;-59
2022/06/07 14:16:55;;;;;;;9.52;2.25;;;;;;;;;;5020851;28;20048;-59
2022/06/07 14:19:39;;;;;;;9.57;1.90;;;;;;;;;;5052287;28;20025;-59
2022/06/07 14:22:26;;;;;;;13.98;2.20;;;;;;;;;;5064203;28;20031;-59
2022/06/07 14:24:52;;;;;;;4.38;1.55;;;;;;;;;;5045340;28;20036;-59
2022/06/07 14:27:21;;;;;;;5.15;1.60;;;;;;;;;;5052494;28;20074;-59
2022/06/07 14:29:47;;;;;;;7.38;1.58;;;;;;;;;;5052402;28;20044;-59
2022/06/07 14:32:15;;;;;;;6.28;1.25;;;;;;;;;;5066133;28;20032;-59
2022/06/07 14:34:41;;;;;;;9.15;1.90;;;;;;;;;;5072411;28;20025;-59
2022/06/07 14:37:15;;;;;;;9.65;2.15;;;;;;;;;;5058472;28;20437;-59
2022/06/07 14:39:42;;;;;;;9.60;2.03;;;;;;;;;;5052443;28;20151;-59
2022/06/07 14:42:09;;;;;;;6.30;1.60;;;;;;;;;;5054482;28;20021;-59
2022/06/07 14:44:35;;;;;;;14.45;2.17;;;;;;;;;;5072317;28;20408;-59
2022/06/07 14:47:02;;;;;;;10.73;2.05;;;;;;;;;;5071359;28;20147;-59
2022/06/07 14:49:32;;;;;;;8.65;2.05;;;;;;;;;;5052216;28;20033;-59
2022/06/07 14:51:59;;;;;;;11.27;2.85;;;;;;;;;;5052084;28;20090;-59
2022/06/07 14:54:29;;;;;;;9.93;2.00;;;;;;;;;;5066651;28;20032;-59
2022/06/07 14:56:56;;;;;;;7.65;1.73;;;;;;;;;;5071777;28;20036;-59
2022/06/07 14:59:23;;;;;;;7.70;1.83;;;;;;;;;;5071640;28;20387;-59
2022/06/07 15:01:49;;;;;;;12.00;2.13;;;;;;;;;;5057002;28;20033;-59
2022/06/07 15:04:17;;;;;;;10.65;2.47;;;;;;;;;;5051878;28;20025;-59
2022/06/07 15:06:44;;;;;;;15.32;2.08;;;;;;;;;;5051932;28;20036;-59
2022/06/07 15:09:15;;;;;;;6.18;1.90;;;;;;;;;;5051694;28;20029;-59
2022/06/07 15:11:42;;;;;;;9.10;1.95;;;;;;;;;;5052019;28;20418;-59
2022/06/07 15:14:08;;;;;;;12.63;2.20;;;;;;;;;;5063052;28;20319;-59
2022/06/07 15:16:36;;;;;;;5.68;1.73;;;;;;;;;;5058500;28;20029;-59
2022/06/07 15:19:04;;;;;;;15.13;2.47;;;;;;;;;;5071738;28;20458;-59
2022/06/07 15:21:32;;;;;;;15.48;2.47;;;;;;;;;;5072033;28;20024;-59
2022/06/07 15:23:58;;;;;;;8.65;2.28;;;;;;;;;;5071732;28;20515;-59
2022/06/07 15:26:25;;;;;;;10.55;2.05;;;;;;;;;;5071941;28;20028;-59
2022/06/07 15:28:51;;;;;;;14.98;3.00;;;;;;;;;;5056308;28;20036;-59
2022/06/07 15:31:19;;;;;;;13.20;2.88;;;;;;;;;;5055849;28;20025;-59